createdAt,value
2022-10-17T00:00:45.616Z,10.94
2022-10-17T00:04:03.348Z,10.89
2022-10-17T00:07:26.673Z,10.93
2022-10-17T00:10:37.294Z,10.90
2022-10-17T00:14:02.240Z,10.89
2022-10-17T00:17:33.458Z,10.77
2022-10-17T00:20:43.296Z,10.81
2022-10-17T00:24:07.223Z,10.82
2022-10-17T00:27:38.439Z,10.72
2022-10-17T00:31:04.605Z,10.71
2022-10-17T00:34:17.472Z,10.72
2022-10-17T00:37:34.244Z,10.72
2022-10-17T00:40:58.372Z,10.70
2022-10-17T00:44:33.533Z,10.65
2022-10-17T00:47:37.632Z,10.64
2022-10-17T00:50:44.456Z,10.46
2022-10-17T00:53:52.054Z,10.36
2022-10-17T00:57:13.117Z,10.48
2022-10-17T01:00:36.159Z,10.59
2022-10-17T01:03:46.831Z,10.60
2022-10-17T01:06:55.820Z,10.55
2022-10-17T01:10:14.135Z,10.58
2022-10-17T01:14:05.425Z,10.42
2022-10-17T01:17:56.700Z,10.40
2022-10-17T01:21:06.471Z,10.45
2022-10-17T01:24:21.526Z,10.40
2022-10-17T01:27:35.704Z,10.43
2022-10-17T01:31:24.224Z,10.43
2022-10-17T01:34:55.244Z,10.36
2022-10-17T01:38:22.192Z,10.32
2022-10-17T01:41:52.888Z,10.32
2022-10-17T01:45:13.808Z,10.31
2022-10-17T01:48:42.099Z,10.30
2022-10-17T01:52:12.934Z,10.30
2022-10-17T01:55:55.135Z,10.20
2022-10-17T01:59:30.076Z,9.97
2022-10-17T02:02:42.924Z,10.01
2022-10-17T02:05:52.932Z,9.91
2022-10-17T02:09:32.012Z,9.73
2022-10-17T02:13:02.948Z,9.66
2022-10-17T02:16:24.476Z,9.62
2022-10-17T02:19:52.168Z,9.68
2022-10-17T02:23:35.198Z,9.68
2022-10-17T02:26:46.302Z,9.76
2022-10-17T02:30:13.812Z,9.80
2022-10-17T02:33:45.013Z,9.80
2022-10-17T02:37:05.293Z,9.85
2022-10-17T02:40:24.260Z,9.84
2022-10-17T02:43:31.583Z,9.83
2022-10-17T02:46:41.199Z,9.80
2022-10-17T02:50:00.202Z,9.76
2022-10-17T02:53:10.010Z,9.68
2022-10-17T02:56:19.640Z,9.71
2022-10-17T02:59:32.095Z,9.73
2022-10-17T03:02:51.713Z,9.77
2022-10-17T03:06:05.822Z,9.77
2022-10-17T03:09:23.062Z,9.72
2022-10-17T03:12:26.957Z,9.70
2022-10-17T03:15:37.298Z,9.57
2022-10-17T03:18:50.098Z,9.47
2022-10-17T03:21:57.518Z,9.41
2022-10-17T03:25:00.803Z,9.43
2022-10-17T03:28:10.013Z,9.37
2022-10-17T03:31:18.564Z,9.32
2022-10-17T03:34:42.837Z,9.23
2022-10-17T03:37:57.605Z,9.22
2022-10-17T03:41:22.708Z,9.32
2022-10-17T03:44:50.716Z,9.37
2022-10-17T03:48:11.750Z,9.35
2022-10-17T03:51:30.908Z,9.39
2022-10-17T03:54:51.914Z,9.43
2022-10-17T03:58:20.074Z,9.37
2022-10-17T04:01:37.726Z,9.32
2022-10-17T04:05:00.972Z,9.26
2022-10-17T04:08:21.665Z,9.22
2022-10-17T04:11:52.567Z,9.32
2022-10-17T04:15:09.035Z,9.37
2022-10-17T04:18:31.766Z,9.38
2022-10-17T04:21:53.738Z,9.34
2022-10-17T04:25:15.882Z,9.23
2022-10-17T04:32:00.785Z,9.22
2022-10-17T04:35:09.836Z,9.32
2022-10-17T04:38:33.782Z,9.42
2022-10-17T04:42:00.764Z,9.42
2022-10-17T04:45:20.824Z,9.34
2022-10-17T04:48:51.103Z,9.37
2022-10-17T04:52:11.749Z,9.32
2022-10-17T04:55:35.899Z,9.35
2022-10-17T04:58:57.731Z,9.34
2022-10-17T05:02:18.909Z,9.36
2022-10-17T05:05:29.883Z,9.23
2022-10-17T05:08:53.724Z,9.27
2022-10-17T05:12:04.346Z,9.26
2022-10-17T05:15:19.591Z,9.35
2022-10-17T05:18:24.294Z,9.36
2022-10-17T05:21:40.837Z,9.32
2022-10-17T05:24:51.373Z,9.20
2022-10-17T05:27:57.296Z,9.30
2022-10-17T05:31:21.164Z,9.28
2022-10-17T05:34:25.434Z,9.17
2022-10-17T05:37:49.172Z,9.25
2022-10-17T05:41:02.044Z,9.34
2022-10-17T05:44:27.469Z,9.39
2022-10-17T05:53:46.349Z,9.38
2022-10-17T05:57:04.083Z,9.62
2022-10-17T06:04:00.671Z,9.68
2022-10-17T06:07:58.291Z,9.70
2022-10-17T06:11:29.127Z,9.85
2022-10-17T06:14:40.945Z,9.86
2022-10-17T06:17:53.123Z,9.82
2022-10-17T06:21:05.267Z,9.80
2022-10-17T06:24:13.276Z,9.82
2022-10-17T06:27:20.638Z,9.87
2022-10-17T06:30:25.498Z,9.91
2022-10-17T06:33:44.854Z,10.14
2022-10-17T06:37:35.323Z,10.34
2022-10-17T06:45:40.641Z,10.56
2022-10-17T06:49:35.803Z,10.76
2022-10-17T06:53:20.312Z,10.75
2022-10-17T06:57:10.364Z,10.86
2022-10-17T07:00:59.916Z,10.88
2022-10-17T07:04:21.111Z,10.89
2022-10-17T07:07:45.625Z,10.90
2022-10-17T07:11:39.554Z,11.12
2022-10-17T07:14:51.877Z,11.14
2022-10-17T07:18:37.966Z,11.21
2022-10-17T07:21:43.888Z,11.26
2022-10-17T07:25:06.168Z,11.36
2022-10-17T07:28:32.284Z,11.47
2022-10-17T07:31:50.050Z,11.66
2022-10-17T07:34:55.525Z,11.76
2022-10-17T07:38:18.231Z,11.79
2022-10-17T07:42:08.516Z,11.94
2022-10-17T07:58:12.676Z,12.57
2022-10-17T08:01:38.563Z,12.55
2022-10-17T08:04:46.859Z,12.63
2022-10-17T08:08:40.746Z,12.77
2022-10-17T08:12:14.950Z,12.90
2022-10-17T08:20:16.132Z,13.05
2022-10-17T08:24:23.196Z,13.10
2022-10-17T08:27:59.007Z,13.21
2022-10-17T08:32:01.134Z,13.29
2022-10-17T08:41:15.599Z,13.68
2022-10-17T08:45:04.040Z,13.75
2022-10-17T08:53:04.616Z,13.88
2022-10-17T09:02:11.423Z,14.45
2022-10-17T09:06:05.985Z,14.55
2022-10-17T09:09:28.684Z,14.68
2022-10-17T09:13:43.311Z,14.85
2022-10-17T09:17:44.809Z,15.07
2022-10-17T09:22:12.555Z,15.12
2022-10-17T09:25:30.676Z,15.35
2022-10-17T09:29:01.842Z,15.43
2022-10-17T09:37:54.556Z,15.75
2022-10-17T09:42:18.105Z,15.90
2022-10-17T09:50:01.055Z,16.10
2022-10-17T10:00:02.544Z,16.35
2022-10-17T10:03:56.422Z,16.57
2022-10-17T10:07:44.719Z,16.74
2022-10-17T10:16:56.832Z,16.87
2022-10-17T10:20:38.070Z,16.95
2022-10-17T10:24:14.561Z,16.91
2022-10-17T10:27:22.364Z,17.01
2022-10-17T10:30:34.870Z,17.38
2022-10-17T10:33:50.898Z,17.83
2022-10-17T10:37:41.567Z,18.25
2022-10-17T10:41:13.069Z,18.37
2022-10-17T10:44:39.780Z,18.55
2022-10-17T10:48:14.792Z,18.55
2022-10-17T10:57:25.141Z,18.83
2022-10-17T11:07:26.377Z,19.12
2022-10-17T11:10:45.544Z,19.35
2022-10-17T11:29:12.100Z,20.07
2022-10-17T11:33:13.481Z,20.11
2022-10-17T11:42:29.167Z,20.41
2022-10-17T12:14:17.302Z,21.10
2022-10-17T12:17:44.073Z,21.15
2022-10-17T12:21:01.029Z,21.07
2022-10-17T12:24:52.472Z,21.04
2022-10-17T12:28:59.857Z,21.48
2022-10-17T12:32:13.643Z,22.06
2022-10-17T12:35:59.929Z,22.26
2022-10-17T12:39:20.631Z,23.13
2022-10-17T12:42:46.864Z,22.05
2022-10-17T12:46:01.873Z,21.10
2022-10-17T12:49:56.682Z,20.77
2022-10-17T12:53:25.577Z,20.59
2022-10-17T12:56:53.503Z,20.54
2022-10-17T13:00:26.372Z,20.44
2022-10-17T13:04:46.246Z,20.43
2022-10-17T13:08:26.153Z,20.51
2022-10-17T13:17:05.563Z,20.48
2022-10-17T13:20:33.658Z,20.39
2022-10-17T13:23:38.365Z,20.39
2022-10-17T13:26:48.268Z,20.31
2022-10-17T13:29:57.270Z,20.21
2022-10-17T13:38:42.659Z,20.34
2022-10-17T13:41:59.835Z,20.34
2022-10-17T13:46:19.259Z,20.39
2022-10-17T13:49:41.117Z,20.39
2022-10-17T13:52:44.335Z,20.38
2022-10-17T13:56:27.856Z,20.35
2022-10-17T13:59:50.430Z,20.29
2022-10-17T14:03:03.971Z,20.18
2022-10-17T14:06:23.247Z,20.36
2022-10-17T14:09:43.816Z,20.33
2022-10-17T14:13:00.244Z,20.36
2022-10-17T14:16:11.243Z,20.39
2022-10-17T14:19:33.420Z,20.38
2022-10-17T14:22:40.963Z,20.31
2022-10-17T14:26:15.938Z,20.24
2022-10-17T14:29:27.742Z,20.19
2022-10-17T14:32:37.755Z,20.05
2022-10-17T14:35:55.182Z,19.97
2022-10-17T14:39:15.833Z,19.77
2022-10-17T14:42:24.880Z,19.99
2022-10-17T14:45:50.121Z,20.09
2022-10-17T14:49:27.162Z,19.95
2022-10-17T14:52:39.077Z,19.83
2022-10-17T14:56:09.110Z,19.61
2022-10-17T14:59:51.439Z,19.57
2022-10-17T15:02:46.980Z,19.69
2022-10-17T15:06:04.983Z,19.50
2022-10-17T15:09:28.922Z,19.38
2022-10-17T15:12:57.495Z,19.33
2022-10-17T15:16:47.879Z,19.21
2022-10-17T15:19:51.962Z,19.25
2022-10-17T15:22:59.586Z,19.06
2022-10-17T15:26:22.066Z,19.04
2022-10-17T15:29:30.550Z,18.81
2022-10-17T15:32:51.963Z,18.59
2022-10-17T15:36:15.067Z,18.57
2022-10-17T15:39:37.041Z,18.50
2022-10-17T15:43:00.058Z,18.26
2022-10-17T15:46:22.042Z,18.07
2022-10-17T15:49:43.035Z,17.88
2022-10-17T15:53:04.012Z,17.71
2022-10-17T15:56:31.563Z,17.48
2022-10-17T15:59:48.061Z,17.36
2022-10-17T16:03:09.083Z,17.17
2022-10-17T16:06:26.023Z,16.96
2022-10-17T16:09:41.192Z,16.85
2022-10-17T16:13:03.998Z,16.77
2022-10-17T16:16:28.954Z,16.63
2022-10-17T16:19:58.340Z,16.56
2022-10-17T16:23:15.141Z,16.45
2022-10-17T16:26:18.859Z,16.34
2022-10-17T16:29:25.872Z,16.22
2022-10-17T16:32:33.580Z,16.15
2022-10-17T16:35:42.587Z,16.10
2022-10-17T16:38:46.294Z,16.10
2022-10-17T16:41:54.848Z,16.01
2022-10-17T16:45:04.572Z,15.93
2022-10-17T16:48:18.156Z,15.78
2022-10-17T16:51:39.824Z,15.64
2022-10-17T16:54:43.016Z,15.54
2022-10-17T16:57:49.292Z,15.41
2022-10-17T17:01:05.658Z,15.32
2022-10-17T17:04:28.803Z,15.26
2022-10-17T17:07:53.637Z,15.21
2022-10-17T17:11:17.615Z,15.23
2022-10-17T17:14:39.607Z,15.17
2022-10-17T17:17:55.967Z,15.00
2022-10-17T17:21:16.871Z,14.88
2022-10-17T17:24:31.613Z,14.81
2022-10-17T17:27:34.397Z,14.75
2022-10-17T17:30:45.142Z,14.71
2022-10-17T17:34:01.716Z,14.69
2022-10-17T17:37:08.131Z,14.63
2022-10-17T17:40:15.223Z,14.63
2022-10-17T17:43:22.290Z,14.55
2022-10-17T17:46:42.607Z,14.52
2022-10-17T17:50:03.547Z,14.54
2022-10-17T17:53:15.553Z,14.52
2022-10-17T17:56:40.695Z,14.55
2022-10-17T18:00:10.684Z,14.58
2022-10-17T18:03:26.875Z,14.57
2022-10-17T18:06:49.657Z,14.51
2022-10-17T18:13:39.617Z,14.45
2022-10-17T18:17:03.645Z,14.41
2022-10-17T18:20:27.626Z,14.37
2022-10-17T18:23:48.842Z,14.37
2022-10-17T18:26:54.047Z,14.32
2022-10-17T18:29:56.878Z,14.25
2022-10-17T18:33:11.235Z,14.27
2022-10-17T18:36:31.114Z,14.21
2022-10-17T18:39:40.612Z,14.06
2022-10-17T18:42:57.782Z,14.04
2022-10-17T18:46:32.631Z,13.99
2022-10-17T18:49:55.550Z,13.92
2022-10-17T18:53:21.220Z,13.84
2022-10-17T18:56:38.605Z,13.75
2022-10-17T19:00:03.172Z,13.73
2022-10-17T19:03:27.651Z,13.75
2022-10-17T19:06:50.228Z,13.67
2022-10-17T19:10:10.282Z,13.63
2022-10-17T19:13:34.551Z,13.63
2022-10-17T19:16:59.192Z,13.55
2022-10-17T19:20:21.154Z,13.53
2022-10-17T19:23:42.246Z,13.51
2022-10-17T19:26:47.032Z,13.48
2022-10-17T19:29:55.941Z,13.48
2022-10-17T19:33:05.828Z,13.40
2022-10-17T19:36:32.259Z,13.34
2022-10-17T19:39:45.212Z,13.26
2022-10-17T19:42:52.169Z,13.23
2022-10-17T19:46:04.272Z,13.23
2022-10-17T19:49:07.830Z,13.20
2022-10-17T19:52:10.560Z,13.18
2022-10-17T19:55:33.489Z,13.18
2022-10-17T19:59:04.549Z,13.10
2022-10-17T20:02:24.530Z,13.07
2022-10-17T20:05:45.419Z,13.03
2022-10-17T20:09:13.926Z,12.96
2022-10-17T20:12:35.379Z,12.85
2022-10-17T20:15:57.534Z,12.81
2022-10-17T20:19:17.334Z,12.78
2022-10-17T20:22:40.411Z,12.68
2022-10-17T20:26:08.734Z,12.65
2022-10-17T20:29:28.128Z,12.57
2022-10-17T20:32:49.690Z,12.49
2022-10-17T20:35:57.681Z,12.52
2022-10-17T20:39:07.303Z,12.48
2022-10-17T20:42:14.508Z,12.35
2022-10-17T20:45:43.833Z,12.37
2022-10-17T20:49:31.310Z,12.29
2022-10-17T20:53:24.450Z,12.25
2022-10-17T20:56:27.475Z,12.17
2022-10-17T20:59:46.346Z,12.12
2022-10-17T21:03:06.387Z,11.94
2022-10-17T21:06:27.276Z,11.94
2022-10-17T21:09:47.341Z,11.91
2022-10-17T21:13:07.317Z,11.77
2022-10-17T21:16:29.386Z,11.77
2022-10-17T21:19:49.175Z,11.78
2022-10-17T21:22:52.462Z,11.65
2022-10-17T21:26:00.096Z,11.70
2022-10-17T21:29:11.822Z,11.64
2022-10-17T21:32:39.404Z,11.60
2022-10-17T21:36:05.880Z,11.56
2022-10-17T21:39:15.853Z,11.44
2022-10-17T21:42:39.198Z,11.32
2022-10-17T21:46:12.111Z,11.37
2022-10-17T21:49:30.523Z,11.38
2022-10-17T21:52:46.103Z,11.34
2022-10-17T21:56:08.136Z,11.30
2022-10-17T21:59:17.712Z,11.15
2022-10-17T22:02:21.075Z,11.14
2022-10-17T22:05:37.387Z,11.09
2022-10-17T22:08:43.519Z,11.19
2022-10-17T22:12:00.091Z,11.19
2022-10-17T22:15:03.992Z,11.21
2022-10-17T22:18:18.075Z,11.23
2022-10-17T22:21:34.948Z,11.22
2022-10-17T22:24:58.029Z,11.17
2022-10-17T22:28:21.044Z,11.14
2022-10-17T22:31:43.936Z,11.11
2022-10-17T22:35:07.209Z,10.97
2022-10-17T22:38:26.986Z,10.88
2022-10-17T22:41:43.224Z,10.86
2022-10-17T22:45:04.135Z,10.92
2022-10-17T22:48:37.981Z,10.90
2022-10-17T22:51:58.961Z,10.76
2022-10-17T22:55:20.961Z,10.76
2022-10-17T22:58:44.030Z,10.78
2022-10-17T23:02:04.015Z,10.83
2022-10-17T23:05:26.976Z,10.86
2022-10-17T23:08:49.020Z,10.84
2022-10-17T23:12:11.964Z,10.81
2022-10-17T23:15:36.971Z,10.78
2022-10-17T23:18:58.035Z,10.74
2022-10-17T23:22:12.125Z,10.72
2022-10-17T23:25:34.930Z,10.71
2022-10-17T23:29:00.326Z,10.65
2022-10-17T23:32:21.046Z,10.64
2022-10-17T23:35:44.111Z,10.63
2022-10-17T23:39:01.295Z,10.55
2022-10-17T23:42:04.282Z,10.55
2022-10-17T23:45:09.678Z,10.47
2022-10-17T23:48:30.681Z,10.49
2022-10-17T23:51:51.721Z,10.52
2022-10-17T23:55:14.910Z,10.48
2022-10-17T23:58:40.688Z,10.50
